sensor_id;sensor_type;location;lat;lon;timestamp;P1;durP1;ratioP1;P2;durP2;ratioP2
17171;SDS011;8701;50.150;8.756;2023-08-31T00:01:30;4.80;;;4.30;;
17171;SDS011;8701;50.150;8.756;2023-08-31T00:05:37;5.77;;;3.40;;
17171;SDS011;8701;50.150;8.756;2023-08-31T00:09:41;3.80;;;3.40;;
17171;SDS011;8701;50.150;8.756;2023-08-31T00:13:43;5.00;;;3.43;;
17171;SDS011;8701;50.150;8.756;2023-08-31T00:17:45;6.00;;;3.97;;
17171;SDS011;8701;50.150;8.756;2023-08-31T00:21:49;4.63;;;3.40;;
17171;SDS011;8701;50.150;8.756;2023-08-31T00:25:51;4.30;;;3.30;;
17171;SDS011;8701;50.150;8.756;2023-08-31T00:29:54;6.73;;;3.60;;
17171;SDS011;8701;50.150;8.756;2023-08-31T00:33:58;3.83;;;3.53;;
17171;SDS011;8701;50.150;8.756;2023-08-31T00:38:06;4.83;;;3.00;;
17171;SDS011;8701;50.150;8.756;2023-08-31T00:42:08;4.07;;;3.67;;
17171;SDS011;8701;50.150;8.756;2023-08-31T00:46:10;3.60;;;3.30;;
17171;SDS011;8701;50.150;8.756;2023-08-31T00:50:12;4.63;;;3.37;;
17171;SDS011;8701;50.150;8.756;2023-08-31T00:54:17;3.80;;;3.30;;
17171;SDS011;8701;50.150;8.756;2023-08-31T00:58:19;6.23;;;3.60;;
17171;SDS011;8701;50.150;8.756;2023-08-31T01:02:22;7.23;;;3.23;;
17171;SDS011;8701;50.150;8.756;2023-08-31T01:06:35;5.60;;;3.57;;
17171;SDS011;8701;50.150;8.756;2023-08-31T01:10:47;7.60;;;3.30;;
17171;SDS011;8701;50.150;8.756;2023-08-31T01:15:04;6.33;;;3.20;;
17171;SDS011;8701;50.150;8.756;2023-08-31T01:19:12;10.00;;;3.70;;
17171;SDS011;8701;50.150;8.756;2023-08-31T01:23:21;6.80;;;3.90;;
17171;SDS011;8701;50.150;8.756;2023-08-31T01:27:30;5.40;;;4.10;;
17171;SDS011;8701;50.150;8.756;2023-08-31T01:31:33;5.70;;;3.30;;
17171;SDS011;8701;50.150;8.756;2023-08-31T01:35:45;4.10;;;3.50;;
17171;SDS011;8701;50.150;8.756;2023-08-31T01:39:54;4.63;;;3.57;;
17171;SDS011;8701;50.150;8.756;2023-08-31T01:44:01;5.40;;;3.47;;
17171;SDS011;8701;50.150;8.756;2023-08-31T01:48:06;6.00;;;4.50;;
17171;SDS011;8701;50.150;8.756;2023-08-31T01:52:11;4.67;;;3.57;;
17171;SDS011;8701;50.150;8.756;2023-08-31T01:56:13;5.40;;;3.47;;
17171;SDS011;8701;50.150;8.756;2023-08-31T02:00:17;11.50;;;3.60;;
17171;SDS011;8701;50.150;8.756;2023-08-31T02:04:22;6.00;;;3.80;;
17171;SDS011;8701;50.150;8.756;2023-08-31T02:08:24;4.53;;;3.50;;
17171;SDS011;8701;50.150;8.756;2023-08-31T02:12:26;6.33;;;3.87;;
17171;SDS011;8701;50.150;8.756;2023-08-31T02:16:29;6.00;;;3.90;;
17171;SDS011;8701;50.150;8.756;2023-08-31T02:20:32;7.10;;;3.90;;
17171;SDS011;8701;50.150;8.756;2023-08-31T02:24:35;6.73;;;4.00;;
17171;SDS011;8701;50.150;8.756;2023-08-31T02:28:37;6.27;;;4.13;;
17171;SDS011;8701;50.150;8.756;2023-08-31T02:32:40;5.10;;;4.10;;
17171;SDS011;8701;50.150;8.756;2023-08-31T02:36:43;7.67;;;3.80;;
17171;SDS011;8701;50.150;8.756;2023-08-31T02:40:45;6.70;;;4.10;;
17171;SDS011;8701;50.150;8.756;2023-08-31T02:44:51;5.33;;;3.90;;
17171;SDS011;8701;50.150;8.756;2023-08-31T02:48:55;5.13;;;3.50;;
17171;SDS011;8701;50.150;8.756;2023-08-31T02:52:57;5.00;;;3.97;;
17171;SDS011;8701;50.150;8.756;2023-08-31T02:57:00;6.43;;;3.33;;
17171;SDS011;8701;50.150;8.756;2023-08-31T03:01:07;4.67;;;3.97;;
17171;SDS011;8701;50.150;8.756;2023-08-31T03:05:13;4.53;;;4.10;;
17171;SDS011;8701;50.150;8.756;2023-08-31T03:09:17;5.60;;;3.70;;
17171;SDS011;8701;50.150;8.756;2023-08-31T03:13:20;4.37;;;3.80;;
17171;SDS011;8701;50.150;8.756;2023-08-31T03:17:22;5.53;;;3.77;;
17171;SDS011;8701;50.150;8.756;2023-08-31T03:21:28;7.80;;;3.87;;
17171;SDS011;8701;50.150;8.756;2023-08-31T03:25:30;4.93;;;3.67;;
17171;SDS011;8701;50.150;8.756;2023-08-31T03:29:32;7.57;;;3.43;;
17171;SDS011;8701;50.150;8.756;2023-08-31T03:33:35;8.00;;;3.80;;
17171;SDS011;8701;50.150;8.756;2023-08-31T03:37:39;4.30;;;3.57;;
17171;SDS011;8701;50.150;8.756;2023-08-31T03:41:42;7.37;;;3.70;;
17171;SDS011;8701;50.150;8.756;2023-08-31T03:45:44;4.93;;;3.80;;
17171;SDS011;8701;50.150;8.756;2023-08-31T03:49:46;8.57;;;3.63;;
17171;SDS011;8701;50.150;8.756;2023-08-31T03:53:50;3.93;;;3.50;;
17171;SDS011;8701;50.150;8.756;2023-08-31T03:57:57;4.87;;;3.80;;
17171;SDS011;8701;50.150;8.756;2023-08-31T04:02:00;11.33;;;4.43;;
17171;SDS011;8701;50.150;8.756;2023-08-31T04:06:04;6.73;;;4.20;;
17171;SDS011;8701;50.150;8.756;2023-08-31T04:10:08;8.40;;;4.17;;
17171;SDS011;8701;50.150;8.756;2023-08-31T04:14:10;6.73;;;3.90;;
17171;SDS011;8701;50.150;8.756;2023-08-31T04:18:12;6.10;;;4.07;;
17171;SDS011;8701;50.150;8.756;2023-08-31T04:22:15;8.27;;;4.60;;
17171;SDS011;8701;50.150;8.756;2023-08-31T04:26:18;7.90;;;4.30;;
17171;SDS011;8701;50.150;8.756;2023-08-31T04:30:21;5.47;;;3.83;;
17171;SDS011;8701;50.150;8.756;2023-08-31T04:34:23;5.30;;;4.80;;
17171;SDS011;8701;50.150;8.756;2023-08-31T04:38:25;6.07;;;4.70;;
17171;SDS011;8701;50.150;8.756;2023-08-31T04:42:29;8.73;;;3.70;;
17171;SDS011;8701;50.150;8.756;2023-08-31T04:46:31;4.23;;;3.83;;
17171;SDS011;8701;50.150;8.756;2023-08-31T04:50:34;5.80;;;4.23;;
17171;SDS011;8701;50.150;8.756;2023-08-31T04:54:36;7.80;;;4.53;;
17171;SDS011;8701;50.150;8.756;2023-08-31T04:58:40;6.73;;;4.30;;
17171;SDS011;8701;50.150;8.756;2023-08-31T05:02:42;5.10;;;4.20;;
17171;SDS011;8701;50.150;8.756;2023-08-31T05:06:45;5.00;;;3.70;;
17171;SDS011;8701;50.150;8.756;2023-08-31T05:10:47;8.90;;;5.07;;
17171;SDS011;8701;50.150;8.756;2023-08-31T05:14:50;5.93;;;4.77;;
17171;SDS011;8701;50.150;8.756;2023-08-31T05:18:52;4.90;;;4.40;;
17171;SDS011;8701;50.150;8.756;2023-08-31T05:22:55;11.17;;;5.43;;
17171;SDS011;8701;50.150;8.756;2023-08-31T05:26:57;6.03;;;4.70;;
17171;SDS011;8701;50.150;8.756;2023-08-31T05:31:01;7.77;;;4.67;;
17171;SDS011;8701;50.150;8.756;2023-08-31T05:35:04;6.63;;;4.70;;
17171;SDS011;8701;50.150;8.756;2023-08-31T05:39:06;5.80;;;4.70;;
17171;SDS011;8701;50.150;8.756;2023-08-31T05:43:10;8.23;;;4.80;;
17171;SDS011;8701;50.150;8.756;2023-08-31T05:47:13;9.63;;;4.83;;
17171;SDS011;8701;50.150;8.756;2023-08-31T05:51:16;6.60;;;4.70;;
17171;SDS011;8701;50.150;8.756;2023-08-31T05:55:18;6.90;;;4.83;;
17171;SDS011;8701;50.150;8.756;2023-08-31T05:59:20;10.73;;;4.37;;
17171;SDS011;8701;50.150;8.756;2023-08-31T06:03:24;7.00;;;4.33;;
17171;SDS011;8701;50.150;8.756;2023-08-31T06:07:26;7.90;;;4.77;;
17171;SDS011;8701;50.150;8.756;2023-08-31T06:11:29;5.57;;;3.90;;
17171;SDS011;8701;50.150;8.756;2023-08-31T06:15:31;14.13;;;4.40;;
17171;SDS011;8701;50.150;8.756;2023-08-31T06:19:35;5.70;;;4.97;;
17171;SDS011;8701;50.150;8.756;2023-08-31T06:23:38;7.10;;;5.17;;
17171;SDS011;8701;50.150;8.756;2023-08-31T06:27:41;7.50;;;4.97;;
17171;SDS011;8701;50.150;8.756;2023-08-31T06:31:44;5.10;;;4.60;;
17171;SDS011;8701;50.150;8.756;2023-08-31T06:35:47;10.73;;;4.10;;
17171;SDS011;8701;50.150;8.756;2023-08-31T06:39:52;8.17;;;4.30;;
17171;SDS011;8701;50.150;8.756;2023-08-31T06:43:54;7.13;;;3.77;;
17171;SDS011;8701;50.150;8.756;2023-08-31T06:47:56;4.80;;;3.67;;
17171;SDS011;8701;50.150;8.756;2023-08-31T06:52:00;7.67;;;4.33;;
17171;SDS011;8701;50.150;8.756;2023-08-31T06:56:04;5.60;;;3.93;;
17171;SDS011;8701;50.150;8.756;2023-08-31T07:00:06;6.70;;;4.03;;
17171;SDS011;8701;50.150;8.756;2023-08-31T07:04:10;6.87;;;4.57;;
17171;SDS011;8701;50.150;8.756;2023-08-31T07:08:13;7.37;;;4.07;;
17171;SDS011;8701;50.150;8.756;2023-08-31T07:12:16;7.20;;;5.20;;
17171;SDS011;8701;50.150;8.756;2023-08-31T07:16:18;5.10;;;3.97;;
17171;SDS011;8701;50.150;8.756;2023-08-31T07:20:20;5.27;;;4.70;;
17171;SDS011;8701;50.150;8.756;2023-08-31T07:24:24;6.90;;;4.10;;
17171;SDS011;8701;50.150;8.756;2023-08-31T07:28:26;7.03;;;4.27;;
17171;SDS011;8701;50.150;8.756;2023-08-31T07:32:28;4.70;;;3.70;;
17171;SDS011;8701;50.150;8.756;2023-08-31T07:36:30;4.73;;;3.50;;
17171;SDS011;8701;50.150;8.756;2023-08-31T07:40:34;4.37;;;3.40;;
17171;SDS011;8701;50.150;8.756;2023-08-31T07:44:36;6.73;;;2.87;;
17171;SDS011;8701;50.150;8.756;2023-08-31T07:48:39;9.30;;;2.73;;
17171;SDS011;8701;50.150;8.756;2023-08-31T07:52:41;4.77;;;2.63;;
17171;SDS011;8701;50.150;8.756;2023-08-31T07:56:44;4.00;;;2.40;;
17171;SDS011;8701;50.150;8.756;2023-08-31T08:00:46;2.93;;;2.30;;
17171;SDS011;8701;50.150;8.756;2023-08-31T08:04:49;4.10;;;2.67;;
17171;SDS011;8701;50.150;8.756;2023-08-31T08:08:51;3.30;;;2.57;;
17171;SDS011;8701;50.150;8.756;2023-08-31T08:12:54;6.17;;;2.97;;
17171;SDS011;8701;50.150;8.756;2023-08-31T08:16:57;3.00;;;2.50;;
17171;SDS011;8701;50.150;8.756;2023-08-31T08:20:59;5.10;;;2.50;;
17171;SDS011;8701;50.150;8.756;2023-08-31T08:25:01;6.73;;;2.50;;
17171;SDS011;8701;50.150;8.756;2023-08-31T08:29:05;3.53;;;2.27;;
17171;SDS011;8701;50.150;8.756;2023-08-31T08:33:08;6.17;;;2.03;;
17171;SDS011;8701;50.150;8.756;2023-08-31T08:37:10;3.40;;;1.90;;
17171;SDS011;8701;50.150;8.756;2023-08-31T08:41:12;4.43;;;2.10;;
17171;SDS011;8701;50.150;8.756;2023-08-31T08:45:19;7.73;;;2.50;;
17171;SDS011;8701;50.150;8.756;2023-08-31T08:49:25;4.70;;;1.90;;
17171;SDS011;8701;50.150;8.756;2023-08-31T08:53:28;4.37;;;2.23;;
17171;SDS011;8701;50.150;8.756;2023-08-31T08:57:30;5.00;;;2.10;;
17171;SDS011;8701;50.150;8.756;2023-08-31T09:01:34;5.23;;;2.10;;
17171;SDS011;8701;50.150;8.756;2023-08-31T09:05:37;6.00;;;2.10;;
17171;SDS011;8701;50.150;8.756;2023-08-31T09:09:47;6.40;;;2.17;;
17171;SDS011;8701;50.150;8.756;2023-08-31T09:13:51;4.57;;;2.07;;
17171;SDS011;8701;50.150;8.756;2023-08-31T09:17:55;3.20;;;1.93;;
17171;SDS011;8701;50.150;8.756;2023-08-31T09:21:57;11.50;;;2.10;;
17171;SDS011;8701;50.150;8.756;2023-08-31T09:26:00;6.77;;;2.00;;
17171;SDS011;8701;50.150;8.756;2023-08-31T09:30:02;2.57;;;1.93;;
17171;SDS011;8701;50.150;8.756;2023-08-31T09:34:06;2.90;;;2.07;;
17171;SDS011;8701;50.150;8.756;2023-08-31T09:38:08;3.43;;;2.00;;
17171;SDS011;8701;50.150;8.756;2023-08-31T09:42:10;6.73;;;2.17;;
17171;SDS011;8701;50.150;8.756;2023-08-31T09:46:13;4.80;;;2.00;;
17171;SDS011;8701;50.150;8.756;2023-08-31T09:50:17;6.10;;;2.20;;
17171;SDS011;8701;50.150;8.756;2023-08-31T09:54:21;4.23;;;2.00;;
17171;SDS011;8701;50.150;8.756;2023-08-31T09:58:24;4.60;;;2.10;;
17171;SDS011;8701;50.150;8.756;2023-08-31T10:02:26;7.03;;;2.90;;
17171;SDS011;8701;50.150;8.756;2023-08-31T10:06:34;5.17;;;2.10;;
17171;SDS011;8701;50.150;8.756;2023-08-31T10:10:36;3.87;;;2.03;;
17171;SDS011;8701;50.150;8.756;2023-08-31T10:14:39;3.83;;;2.33;;
17171;SDS011;8701;50.150;8.756;2023-08-31T10:18:42;7.70;;;2.47;;
17171;SDS011;8701;50.150;8.756;2023-08-31T10:22:45;6.17;;;2.20;;
17171;SDS011;8701;50.150;8.756;2023-08-31T10:26:48;7.33;;;1.93;;
17171;SDS011;8701;50.150;8.756;2023-08-31T10:31:00;2.03;;;1.83;;
17171;SDS011;8701;50.150;8.756;2023-08-31T10:35:03;5.53;;;2.23;;
17171;SDS011;8701;50.150;8.756;2023-08-31T10:39:12;7.10;;;2.10;;
17171;SDS011;8701;50.150;8.756;2023-08-31T10:43:16;3.43;;;2.10;;
17171;SDS011;8701;50.150;8.756;2023-08-31T10:47:18;4.97;;;1.90;;
17171;SDS011;8701;50.150;8.756;2023-08-31T10:51:38;4.93;;;1.70;;
17171;SDS011;8701;50.150;8.756;2023-08-31T10:55:51;3.37;;;2.03;;
17171;SDS011;8701;50.150;8.756;2023-08-31T10:59:53;3.30;;;1.87;;
17171;SDS011;8701;50.150;8.756;2023-08-31T11:03:56;3.60;;;1.70;;
17171;SDS011;8701;50.150;8.756;2023-08-31T11:07:59;3.20;;;1.87;;
17171;SDS011;8701;50.150;8.756;2023-08-31T11:12:03;6.40;;;1.93;;
17171;SDS011;8701;50.150;8.756;2023-08-31T11:16:05;3.03;;;1.60;;
17171;SDS011;8701;50.150;8.756;2023-08-31T11:20:08;4.70;;;1.90;;
17171;SDS011;8701;50.150;8.756;2023-08-31T11:24:15;2.40;;;1.73;;
17171;SDS011;8701;50.150;8.756;2023-08-31T11:28:20;3.73;;;1.70;;
17171;SDS011;8701;50.150;8.756;2023-08-31T11:32:22;3.33;;;1.77;;
17171;SDS011;8701;50.150;8.756;2023-08-31T11:36:25;2.90;;;1.90;;
17171;SDS011;8701;50.150;8.756;2023-08-31T11:40:27;4.63;;;1.80;;
17171;SDS011;8701;50.150;8.756;2023-08-31T11:44:31;4.23;;;1.97;;
17171;SDS011;8701;50.150;8.756;2023-08-31T11:48:34;7.43;;;2.13;;
17171;SDS011;8701;50.150;8.756;2023-08-31T11:52:37;6.53;;;1.83;;
17171;SDS011;8701;50.150;8.756;2023-08-31T11:56:39;1.77;;;1.30;;
17171;SDS011;8701;50.150;8.756;2023-08-31T12:00:44;2.70;;;1.77;;
17171;SDS011;8701;50.150;8.756;2023-08-31T12:04:47;5.80;;;2.30;;
17171;SDS011;8701;50.150;8.756;2023-08-31T12:08:50;3.70;;;1.90;;
17171;SDS011;8701;50.150;8.756;2023-08-31T12:12:52;4.60;;;1.77;;
17171;SDS011;8701;50.150;8.756;2023-08-31T12:17:05;5.00;;;1.90;;
17171;SDS011;8701;50.150;8.756;2023-08-31T12:21:09;2.70;;;1.60;;
17171;SDS011;8701;50.150;8.756;2023-08-31T12:25:19;3.47;;;1.70;;
17171;SDS011;8701;50.150;8.756;2023-08-31T12:29:22;3.17;;;1.57;;
17171;SDS011;8701;50.150;8.756;2023-08-31T12:33:25;3.17;;;1.40;;
17171;SDS011;8701;50.150;8.756;2023-08-31T12:37:27;3.97;;;1.97;;
17171;SDS011;8701;50.150;8.756;2023-08-31T12:41:29;3.03;;;1.90;;
17171;SDS011;8701;50.150;8.756;2023-08-31T12:45:32;6.20;;;1.67;;
17171;SDS011;8701;50.150;8.756;2023-08-31T12:49:36;3.77;;;1.97;;
17171;SDS011;8701;50.150;8.756;2023-08-31T12:53:38;3.00;;;1.57;;
17171;SDS011;8701;50.150;8.756;2023-08-31T12:57:40;4.67;;;1.50;;
17171;SDS011;8701;50.150;8.756;2023-08-31T13:01:42;3.33;;;2.03;;
17171;SDS011;8701;50.150;8.756;2023-08-31T13:05:46;2.90;;;1.50;;
17171;SDS011;8701;50.150;8.756;2023-08-31T13:09:50;3.53;;;1.70;;
17171;SDS011;8701;50.150;8.756;2023-08-31T13:13:52;5.73;;;1.50;;
17171;SDS011;8701;50.150;8.756;2023-08-31T13:17:56;4.90;;;1.60;;
17171;SDS011;8701;50.150;8.756;2023-08-31T13:22:00;2.70;;;1.43;;
17171;SDS011;8701;50.150;8.756;2023-08-31T13:26:02;3.77;;;1.50;;
17171;SDS011;8701;50.150;8.756;2023-08-31T13:30:04;3.83;;;2.00;;
17171;SDS011;8701;50.150;8.756;2023-08-31T13:34:09;3.20;;;1.70;;
17171;SDS011;8701;50.150;8.756;2023-08-31T13:38:14;3.43;;;1.40;;
17171;SDS011;8701;50.150;8.756;2023-08-31T13:42:16;2.20;;;1.60;;
17171;SDS011;8701;50.150;8.756;2023-08-31T13:46:18;1.60;;;1.43;;
17171;SDS011;8701;50.150;8.756;2023-08-31T13:50:20;2.73;;;1.80;;
17171;SDS011;8701;50.150;8.756;2023-08-31T13:54:24;2.50;;;1.80;;
17171;SDS011;8701;50.150;8.756;2023-08-31T13:58:26;2.80;;;1.90;;
17171;SDS011;8701;50.150;8.756;2023-08-31T14:02:29;8.03;;;1.83;;
17171;SDS011;8701;50.150;8.756;2023-08-31T14:06:31;3.40;;;2.17;;
17171;SDS011;8701;50.150;8.756;2023-08-31T14:10:38;4.10;;;1.70;;
17171;SDS011;8701;50.150;8.756;2023-08-31T14:14:41;4.60;;;1.70;;
17171;SDS011;8701;50.150;8.756;2023-08-31T14:18:44;6.70;;;2.00;;
17171;SDS011;8701;50.150;8.756;2023-08-31T14:22:46;10.93;;;2.07;;
17171;SDS011;8701;50.150;8.756;2023-08-31T14:26:50;3.17;;;1.83;;
17171;SDS011;8701;50.150;8.756;2023-08-31T14:30:53;6.53;;;2.10;;
17171;SDS011;8701;50.150;8.756;2023-08-31T14:34:55;2.30;;;1.50;;
17171;SDS011;8701;50.150;8.756;2023-08-31T14:38:57;3.43;;;1.80;;
17171;SDS011;8701;50.150;8.756;2023-08-31T14:43:01;4.03;;;2.17;;
17171;SDS011;8701;50.150;8.756;2023-08-31T14:47:03;3.90;;;1.90;;
17171;SDS011;8701;50.150;8.756;2023-08-31T14:51:05;4.10;;;1.87;;
17171;SDS011;8701;50.150;8.756;2023-08-31T14:55:09;4.33;;;2.27;;
17171;SDS011;8701;50.150;8.756;2023-08-31T14:59:13;3.80;;;1.80;;
17171;SDS011;8701;50.150;8.756;2023-08-31T15:03:16;7.73;;;2.20;;
17171;SDS011;8701;50.150;8.756;2023-08-31T15:07:18;3.37;;;1.37;;
17171;SDS011;8701;50.150;8.756;2023-08-31T15:11:20;5.33;;;2.10;;
17171;SDS011;8701;50.150;8.756;2023-08-31T15:15:24;5.50;;;2.20;;
17171;SDS011;8701;50.150;8.756;2023-08-31T15:19:27;4.13;;;2.23;;
17171;SDS011;8701;50.150;8.756;2023-08-31T15:23:30;4.97;;;1.90;;
17171;SDS011;8701;50.150;8.756;2023-08-31T15:27:32;4.47;;;2.00;;
17171;SDS011;8701;50.150;8.756;2023-08-31T15:31:35;5.47;;;2.93;;
17171;SDS011;8701;50.150;8.756;2023-08-31T15:35:37;3.80;;;2.27;;
17171;SDS011;8701;50.150;8.756;2023-08-31T15:39:40;4.23;;;2.07;;
17171;SDS011;8701;50.150;8.756;2023-08-31T15:43:42;4.10;;;2.30;;
17171;SDS011;8701;50.150;8.756;2023-08-31T15:47:46;3.63;;;1.80;;
17171;SDS011;8701;50.150;8.756;2023-08-31T15:51:48;3.70;;;2.10;;
17171;SDS011;8701;50.150;8.756;2023-08-31T15:55:50;3.87;;;2.00;;
17171;SDS011;8701;50.150;8.756;2023-08-31T15:59:57;2.60;;;1.83;;
17171;SDS011;8701;50.150;8.756;2023-08-31T16:04:01;5.00;;;2.20;;
17171;SDS011;8701;50.150;8.756;2023-08-31T16:08:03;3.47;;;2.30;;
17171;SDS011;8701;50.150;8.756;2023-08-31T16:12:06;7.43;;;2.27;;
17171;SDS011;8701;50.150;8.756;2023-08-31T16:16:09;5.90;;;2.40;;
17171;SDS011;8701;50.150;8.756;2023-08-31T16:20:12;3.00;;;2.43;;
17171;SDS011;8701;50.150;8.756;2023-08-31T16:24:15;4.93;;;1.90;;
17171;SDS011;8701;50.150;8.756;2023-08-31T16:28:17;4.27;;;1.80;;
17171;SDS011;8701;50.150;8.756;2023-08-31T16:32:19;11.77;;;2.47;;
17171;SDS011;8701;50.150;8.756;2023-08-31T16:36:23;7.33;;;2.20;;
17171;SDS011;8701;50.150;8.756;2023-08-31T16:40:25;14.00;;;2.73;;
17171;SDS011;8701;50.150;8.756;2023-08-31T16:44:27;4.93;;;2.37;;
17171;SDS011;8701;50.150;8.756;2023-08-31T16:48:30;10.10;;;2.73;;
17171;SDS011;8701;50.150;8.756;2023-08-31T16:52:33;5.17;;;2.20;;
17171;SDS011;8701;50.150;8.756;2023-08-31T16:56:35;4.57;;;2.20;;
17171;SDS011;8701;50.150;8.756;2023-08-31T17:00:38;6.00;;;2.00;;
17171;SDS011;8701;50.150;8.756;2023-08-31T17:04:40;5.93;;;2.13;;
17171;SDS011;8701;50.150;8.756;2023-08-31T17:08:44;5.00;;;2.07;;
17171;SDS011;8701;50.150;8.756;2023-08-31T17:12:46;7.10;;;2.70;;
17171;SDS011;8701;50.150;8.756;2023-08-31T17:16:48;9.93;;;2.57;;
17171;SDS011;8701;50.150;8.756;2023-08-31T17:20:50;7.23;;;2.50;;
17171;SDS011;8701;50.150;8.756;2023-08-31T17:24:54;5.47;;;2.30;;
17171;SDS011;8701;50.150;8.756;2023-08-31T17:28:58;5.33;;;2.20;;
17171;SDS011;8701;50.150;8.756;2023-08-31T17:33:00;3.10;;;2.00;;
17171;SDS011;8701;50.150;8.756;2023-08-31T17:37:03;4.20;;;2.37;;
17171;SDS011;8701;50.150;8.756;2023-08-31T17:41:06;3.03;;;2.30;;
17171;SDS011;8701;50.150;8.756;2023-08-31T17:45:09;9.13;;;2.20;;
17171;SDS011;8701;50.150;8.756;2023-08-31T17:49:12;4.30;;;2.10;;
17171;SDS011;8701;50.150;8.756;2023-08-31T17:53:14;6.43;;;2.43;;
17171;SDS011;8701;50.150;8.756;2023-08-31T17:57:19;5.50;;;2.20;;
17171;SDS011;8701;50.150;8.756;2023-08-31T18:01:22;5.80;;;2.57;;
17171;SDS011;8701;50.150;8.756;2023-08-31T18:05:24;4.50;;;2.57;;
17171;SDS011;8701;50.150;8.756;2023-08-31T18:09:27;8.43;;;2.63;;
17171;SDS011;8701;50.150;8.756;2023-08-31T18:13:38;3.80;;;2.13;;
17171;SDS011;8701;50.150;8.756;2023-08-31T18:17:40;4.13;;;2.47;;
17171;SDS011;8701;50.150;8.756;2023-08-31T18:21:42;7.60;;;2.70;;
17171;SDS011;8701;50.150;8.756;2023-08-31T18:25:45;4.73;;;3.23;;
17171;SDS011;8701;50.150;8.756;2023-08-31T18:29:49;5.13;;;2.60;;
17171;SDS011;8701;50.150;8.756;2023-08-31T18:33:51;7.37;;;2.60;;
17171;SDS011;8701;50.150;8.756;2023-08-31T18:37:54;5.10;;;2.50;;
17171;SDS011;8701;50.150;8.756;2023-08-31T18:41:56;4.53;;;2.27;;
17171;SDS011;8701;50.150;8.756;2023-08-31T18:45:59;6.20;;;2.57;;
17171;SDS011;8701;50.150;8.756;2023-08-31T18:50:02;5.57;;;2.20;;
17171;SDS011;8701;50.150;8.756;2023-08-31T18:54:04;4.10;;;2.40;;
17171;SDS011;8701;50.150;8.756;2023-08-31T18:58:07;16.00;;;2.33;;
17171;SDS011;8701;50.150;8.756;2023-08-31T19:02:10;7.20;;;2.20;;
17171;SDS011;8701;50.150;8.756;2023-08-31T19:06:12;7.13;;;2.63;;
17171;SDS011;8701;50.150;8.756;2023-08-31T19:10:15;7.93;;;2.30;;
17171;SDS011;8701;50.150;8.756;2023-08-31T19:14:17;6.50;;;2.60;;
17171;SDS011;8701;50.150;8.756;2023-08-31T19:18:22;5.80;;;2.57;;
17171;SDS011;8701;50.150;8.756;2023-08-31T19:22:24;6.93;;;2.87;;
17171;SDS011;8701;50.150;8.756;2023-08-31T19:26:27;6.53;;;2.20;;
17171;SDS011;8701;50.150;8.756;2023-08-31T19:30:30;8.83;;;2.70;;
17171;SDS011;8701;50.150;8.756;2023-08-31T19:34:34;4.73;;;2.40;;
17171;SDS011;8701;50.150;8.756;2023-08-31T19:38:38;6.43;;;2.90;;
17171;SDS011;8701;50.150;8.756;2023-08-31T19:42:40;8.30;;;2.67;;
17171;SDS011;8701;50.150;8.756;2023-08-31T19:46:42;6.67;;;2.90;;
17171;SDS011;8701;50.150;8.756;2023-08-31T19:50:46;9.10;;;2.67;;
17171;SDS011;8701;50.150;8.756;2023-08-31T19:54:49;5.77;;;2.80;;
17171;SDS011;8701;50.150;8.756;2023-08-31T19:58:53;5.20;;;2.13;;
17171;SDS011;8701;50.150;8.756;2023-08-31T20:02:59;7.07;;;2.60;;
17171;SDS011;8701;50.150;8.756;2023-08-31T20:07:03;7.50;;;2.87;;
17171;SDS011;8701;50.150;8.756;2023-08-31T20:11:05;7.17;;;2.63;;
17171;SDS011;8701;50.150;8.756;2023-08-31T20:15:08;7.70;;;2.80;;
17171;SDS011;8701;50.150;8.756;2023-08-31T20:19:10;14.13;;;3.50;;
17171;SDS011;8701;50.150;8.756;2023-08-31T20:23:14;8.40;;;3.77;;
17171;SDS011;8701;50.150;8.756;2023-08-31T20:27:16;8.63;;;2.73;;
17171;SDS011;8701;50.150;8.756;2023-08-31T20:31:19;8.43;;;2.73;;
17171;SDS011;8701;50.150;8.756;2023-08-31T20:35:21;7.87;;;2.80;;
17171;SDS011;8701;50.150;8.756;2023-08-31T20:39:25;7.10;;;2.97;;
17171;SDS011;8701;50.150;8.756;2023-08-31T20:43:28;7.90;;;3.10;;
17171;SDS011;8701;50.150;8.756;2023-08-31T20:47:30;5.33;;;2.63;;
17171;SDS011;8701;50.150;8.756;2023-08-31T20:51:33;11.00;;;3.10;;
17171;SDS011;8701;50.150;8.756;2023-08-31T20:55:37;8.33;;;3.07;;
17171;SDS011;8701;50.150;8.756;2023-08-31T20:59:39;4.60;;;2.60;;
17171;SDS011;8701;50.150;8.756;2023-08-31T21:03:42;5.50;;;3.00;;
17171;SDS011;8701;50.150;8.756;2023-08-31T21:07:45;8.00;;;2.80;;
17171;SDS011;8701;50.150;8.756;2023-08-31T21:11:49;14.13;;;3.73;;
17171;SDS011;8701;50.150;8.756;2023-08-31T21:15:53;7.90;;;3.10;;
17171;SDS011;8701;50.150;8.756;2023-08-31T21:19:55;8.50;;;3.23;;
17171;SDS011;8701;50.150;8.756;2023-08-31T21:23:58;7.73;;;3.47;;
17171;SDS011;8701;50.150;8.756;2023-08-31T21:28:01;6.90;;;3.30;;
17171;SDS011;8701;50.150;8.756;2023-08-31T21:32:04;13.93;;;3.57;;
17171;SDS011;8701;50.150;8.756;2023-08-31T21:36:07;4.10;;;2.90;;
17171;SDS011;8701;50.150;8.756;2023-08-31T21:40:09;4.33;;;2.80;;
17171;SDS011;8701;50.150;8.756;2023-08-31T21:44:13;8.33;;;2.83;;
17171;SDS011;8701;50.150;8.756;2023-08-31T21:48:15;4.80;;;2.90;;
17171;SDS011;8701;50.150;8.756;2023-08-31T21:52:17;5.03;;;2.97;;
17171;SDS011;8701;50.150;8.756;2023-08-31T21:56:20;6.63;;;3.00;;
17171;SDS011;8701;50.150;8.756;2023-08-31T22:00:23;7.27;;;3.67;;
17171;SDS011;8701;50.150;8.756;2023-08-31T22:04:25;4.57;;;3.03;;
17171;SDS011;8701;50.150;8.756;2023-08-31T22:08:28;4.07;;;2.50;;
17171;SDS011;8701;50.150;8.756;2023-08-31T22:12:31;4.83;;;3.13;;
17171;SDS011;8701;50.150;8.756;2023-08-31T22:16:36;4.33;;;2.70;;
17171;SDS011;8701;50.150;8.756;2023-08-31T22:20:38;5.63;;;2.97;;
17171;SDS011;8701;50.150;8.756;2023-08-31T22:24:41;6.87;;;3.23;;
17171;SDS011;8701;50.150;8.756;2023-08-31T22:28:43;6.67;;;2.97;;
17171;SDS011;8701;50.150;8.756;2023-08-31T22:32:47;8.87;;;2.90;;
17171;SDS011;8701;50.150;8.756;2023-08-31T22:36:50;15.20;;;3.90;;
17171;SDS011;8701;50.150;8.756;2023-08-31T22:40:52;7.43;;;3.43;;
17171;SDS011;8701;50.150;8.756;2023-08-31T22:44:54;10.30;;;3.67;;
17171;SDS011;8701;50.150;8.756;2023-08-31T22:48:57;7.03;;;3.67;;
17171;SDS011;8701;50.150;8.756;2023-08-31T22:53:00;9.00;;;3.57;;
17171;SDS011;8701;50.150;8.756;2023-08-31T22:57:04;7.07;;;3.30;;
17171;SDS011;8701;50.150;8.756;2023-08-31T23:01:08;7.20;;;3.27;;
17171;SDS011;8701;50.150;8.756;2023-08-31T23:05:12;7.40;;;3.10;;
17171;SDS011;8701;50.150;8.756;2023-08-31T23:09:14;10.37;;;3.20;;
17171;SDS011;8701;50.150;8.756;2023-08-31T23:13:16;5.70;;;3.23;;
17171;SDS011;8701;50.150;8.756;2023-08-31T23:17:19;4.20;;;2.80;;
17171;SDS011;8701;50.150;8.756;2023-08-31T23:21:22;7.13;;;3.30;;
17171;SDS011;8701;50.150;8.756;2023-08-31T23:25:25;6.90;;;3.27;;
17171;SDS011;8701;50.150;8.756;2023-08-31T23:29:27;8.37;;;3.50;;
17171;SDS011;8701;50.150;8.756;2023-08-31T23:33:29;6.03;;;2.97;;
17171;SDS011;8701;50.150;8.756;2023-08-31T23:37:32;7.47;;;3.20;;
17171;SDS011;8701;50.150;8.756;2023-08-31T23:41:36;5.40;;;3.47;;
17171;SDS011;8701;50.150;8.756;2023-08-31T23:45:38;5.00;;;3.30;;
17171;SDS011;8701;50.150;8.756;2023-08-31T23:49:41;7.10;;;3.50;;
17171;SDS011;8701;50.150;8.756;2023-08-31T23:53:44;3.80;;;3.23;;
17171;SDS011;8701;50.150;8.756;2023-08-31T23:57:47;9.40;;;3.37;;
